Time;durP1;ratioP1;P1;durP2;ratioP2;P2;SDS_P1;SDS_P2;PMS_P1;PMS_P2;Temp;Humidity;BMP_temperature;BMP_pressure;BME280_temperature;BME280_humidity;BME280_pressure;Samples;Min_cycle;Max_cycle;Signal;HPM_P1;HPM_P2
2022/01/14 00:02:02;;;;;;;14.43;9.27;;;;;;;;;;4915547;29;20635;-89
2022/01/14 00:04:29;;;;;;;17.17;9.00;;;;;;;;;;4917785;29;20203;-89
2022/01/14 00:06:57;;;;;;;13.30;8.17;;;;;;;;;;4917968;29;20660;-88
2022/01/14 00:09:24;;;;;;;14.90;9.23;;;;;;;;;;4917667;29;20690;-88
2022/01/14 00:11:55;;;;;;;21.87;9.80;;;;;;;;;;4916286;29;20214;-88
2022/01/14 00:14:35;;;;;;;18.87;9.00;;;;;;;;;;4917500;29;20218;-88
2022/01/14 00:17:04;;;;;;;15.80;8.20;;;;;;;;;;4917857;29;20234;-88
2022/01/14 00:19:32;;;;;;;15.40;8.53;;;;;;;;;;4915789;29;20210;-88
2022/01/14 00:22:04;;;;;;;15.73;8.70;;;;;;;;;;4917452;29;20223;-88
2022/01/14 00:31:38;;;;;;;13.70;7.53;;;;;;;;;;4917522;29;20293;-88
2022/01/14 00:32:58;;;;;;;14.87;8.87;;;;;;;;;;4916823;29;20210;-92
2022/01/14 00:35:25;;;;;;;12.40;8.13;;;;;;;;;;4917252;29;20578;-88
2022/01/14 00:37:53;;;;;;;13.70;7.67;;;;;;;;;;4919398;29;20262;-90
2022/01/14 00:40:20;;;;;;;16.13;8.53;;;;;;;;;;4919935;29;20245;-90
2022/01/14 00:42:48;;;;;;;13.00;7.07;;;;;;;;;;4920500;29;20226;-88
2022/01/14 00:45:15;;;;;;;11.40;7.37;;;;;;;;;;4920957;29;20246;-88
2022/01/14 00:47:42;;;;;;;17.40;8.07;;;;;;;;;;4919546;29;20230;-88
2022/01/14 00:50:12;;;;;;;13.43;7.07;;;;;;;;;;4920483;29;20210;-88
2022/01/14 00:52:41;;;;;;;15.43;9.10;;;;;;;;;;4920554;29;20202;-88
2022/01/14 00:55:11;;;;;;;13.57;7.77;;;;;;;;;;4919872;29;20240;-88
2022/01/14 01:00:24;;;;;;;14.13;8.07;;;;;;;;;;4913940;29;20258;-88
2022/01/14 01:02:52;;;;;;;14.30;8.97;;;;;;;;;;4920712;29;20254;-89
2022/01/14 01:05:21;;;;;;;15.30;9.33;;;;;;;;;;4917237;29;20234;-88
2022/01/14 01:07:55;;;;;;;15.60;9.27;;;;;;;;;;4919127;29;20657;-88
2022/01/14 01:10:23;;;;;;;16.87;8.60;;;;;;;;;;4919583;29;20218;-88
2022/01/14 01:12:54;;;;;;;15.67;9.43;;;;;;;;;;4918819;29;20241;-91
2022/01/14 01:15:21;;;;;;;18.07;9.43;;;;;;;;;;4912359;29;20211;-88
2022/01/14 01:17:48;;;;;;;11.80;7.67;;;;;;;;;;4919097;29;20590;-88
2022/01/14 01:20:18;;;;;;;17.87;10.00;;;;;;;;;;4900738;29;20211;-88
2022/01/14 01:22:48;;;;;;;17.40;9.50;;;;;;;;;;4900202;29;20260;-88
2022/01/14 01:25:18;;;;;;;17.33;9.30;;;;;;;;;;4918411;29;20258;-88
2022/01/14 01:27:47;;;;;;;18.93;9.40;;;;;;;;;;4919302;29;20225;-88
2022/01/14 01:30:26;;;;;;;17.07;9.27;;;;;;;;;;4900233;29;20215;-88
2022/01/14 01:32:54;;;;;;;16.33;8.73;;;;;;;;;;4918135;29;20214;-90
2022/01/14 01:35:21;;;;;;;15.47;8.37;;;;;;;;;;4918767;29;20211;-88
2022/01/14 01:37:50;;;;;;;17.13;9.10;;;;;;;;;;4918948;29;20254;-88
2022/01/14 01:40:19;;;;;;;12.47;7.70;;;;;;;;;;4913104;29;20412;-88
2022/01/14 01:42:47;;;;;;;16.10;9.80;;;;;;;;;;4918437;29;20228;-88
2022/01/14 01:45:20;;;;;;;15.30;8.87;;;;;;;;;;4918882;29;20211;-88
2022/01/14 01:47:50;;;;;;;13.87;9.17;;;;;;;;;;4911179;29;20756;-87
2022/01/14 01:50:18;;;;;;;12.83;8.47;;;;;;;;;;4911625;29;20207;-88
2022/01/14 01:52:46;;;;;;;14.80;8.07;;;;;;;;;;4918284;29;20636;-88
2022/01/14 01:55:15;;;;;;;12.70;7.43;;;;;;;;;;4919011;29;20214;-88
2022/01/14 01:57:44;;;;;;;12.67;7.87;;;;;;;;;;4915016;29;20286;-88
2022/01/14 02:00:12;;;;;;;12.27;7.77;;;;;;;;;;4917699;29;20206;-88
2022/01/14 02:02:39;;;;;;;14.03;8.33;;;;;;;;;;4918148;29;20223;-88
2022/01/14 02:05:07;;;;;;;12.67;6.83;;;;;;;;;;4918387;29;20206;-90
2022/01/14 02:07:35;;;;;;;13.90;7.50;;;;;;;;;;4918757;29;20234;-89
2022/01/14 02:10:03;;;;;;;27.90;21.03;;;;;;;;;;4918432;29;20214;-90
2022/01/14 02:12:36;;;;;;;12.80;8.80;;;;;;;;;;4918427;29;20246;-88
2022/01/14 02:15:11;;;;;;;15.23;8.77;;;;;;;;;;4918528;29;20209;-88
2022/01/14 02:17:52;;;;;;;13.40;8.47;;;;;;;;;;4917597;29;20239;-88
2022/01/14 02:23:07;;;;;;;13.27;8.40;;;;;;;;;;4918213;29;20592;-88
2022/01/14 02:25:36;;;;;;;12.40;8.20;;;;;;;;;;4918147;29;20270;-88
2022/01/14 02:28:05;;;;;;;13.57;8.17;;;;;;;;;;4917905;29;20230;-88
2022/01/14 02:30:33;;;;;;;15.87;8.97;;;;;;;;;;4918385;29;20273;-88
2022/01/14 02:33:01;;;;;;;16.10;9.27;;;;;;;;;;4918195;29;20206;-88
2022/01/14 02:35:30;;;;;;;15.50;9.37;;;;;;;;;;4914441;29;20547;-88
2022/01/14 02:37:58;;;;;;;13.40;8.70;;;;;;;;;;4917646;29;20228;-89
2022/01/14 02:40:25;;;;;;;16.40;9.83;;;;;;;;;;4918140;29;20281;-88
2022/01/14 02:42:54;;;;;;;13.60;7.87;;;;;;;;;;4915216;29;20230;-88
2022/01/14 02:45:26;;;;;;;13.37;7.87;;;;;;;;;;4918412;29;20206;-88
2022/01/14 02:47:54;;;;;;;12.87;7.77;;;;;;;;;;4918258;29;20230;-89
2022/01/14 02:50:23;;;;;;;9.77;7.90;;;;;;;;;;4918181;29;20592;-88
2022/01/14 02:52:58;;;;;;;12.73;8.00;;;;;;;;;;4916983;29;20567;-89
2022/01/14 02:55:29;;;;;;;10.60;7.10;;;;;;;;;;4918215;29;20289;-88
2022/01/14 02:57:58;;;;;;;14.80;7.20;;;;;;;;;;4918583;29;20234;-88
2022/01/14 03:00:26;;;;;;;13.10;8.33;;;;;;;;;;4917261;29;20295;-88
2022/01/14 03:02:54;;;;;;;15.23;8.47;;;;;;;;;;4918147;29;20219;-88
2022/01/14 03:05:22;;;;;;;12.57;8.57;;;;;;;;;;4914182;29;20242;-89
2022/01/14 03:07:50;;;;;;;12.90;8.27;;;;;;;;;;4915133;29;20260;-88
2022/01/14 03:10:20;;;;;;;17.70;8.00;;;;;;;;;;4918475;29;20620;-88
2022/01/14 03:12:48;;;;;;;12.80;7.77;;;;;;;;;;4918566;29;20206;-89
2022/01/14 03:15:16;;;;;;;13.40;7.73;;;;;;;;;;4917437;29;20210;-89
2022/01/14 03:17:43;;;;;;;10.10;6.53;;;;;;;;;;4918242;29;20234;-88
2022/01/14 03:20:26;;;;;;;12.17;7.30;;;;;;;;;;4918350;29;20214;-88
2022/01/14 03:23:04;;;;;;;14.00;7.83;;;;;;;;;;4917873;29;20354;-89
2022/01/14 03:25:47;;;;;;;12.00;7.50;;;;;;;;;;4917387;29;20218;-88
2022/01/14 03:28:15;;;;;;;10.57;7.03;;;;;;;;;;4910240;29;20750;-88
2022/01/14 03:30:42;;;;;;;9.70;6.37;;;;;;;;;;4918207;29;20274;-88
2022/01/14 03:33:09;;;;;;;12.00;7.43;;;;;;;;;;4917196;29;20306;-89
2022/01/14 03:35:37;;;;;;;12.30;7.90;;;;;;;;;;4917638;29;20207;-88
2022/01/14 03:38:04;;;;;;;14.30;9.07;;;;;;;;;;4918698;29;20258;-88
2022/01/14 03:40:33;;;;;;;12.20;8.67;;;;;;;;;;4918659;29;20215;-88
2022/01/14 03:43:00;;;;;;;17.50;8.90;;;;;;;;;;4917289;29;20281;-88
2022/01/14 03:45:28;;;;;;;17.73;8.83;;;;;;;;;;4918247;29;20202;-88
2022/01/14 03:47:55;;;;;;;12.67;8.03;;;;;;;;;;4918418;29;20762;-88
2022/01/14 03:50:22;;;;;;;14.57;8.40;;;;;;;;;;4918057;29;20218;-88
2022/01/14 03:52:50;;;;;;;12.47;8.10;;;;;;;;;;4918328;29;20258;-88
2022/01/14 03:55:17;;;;;;;13.07;8.47;;;;;;;;;;4918488;29;20206;-88
2022/01/14 03:57:46;;;;;;;15.37;8.57;;;;;;;;;;4917863;29;20230;-88
2022/01/14 04:00:14;;;;;;;11.80;7.43;;;;;;;;;;4917971;29;20214;-88
2022/01/14 04:02:41;;;;;;;14.10;7.70;;;;;;;;;;4917915;29;20255;-88
2022/01/14 04:05:09;;;;;;;12.10;7.90;;;;;;;;;;4918367;29;20218;-88
2022/01/14 04:07:36;;;;;;;12.17;8.07;;;;;;;;;;4918361;29;20245;-88
2022/01/14 04:10:05;;;;;;;11.80;7.87;;;;;;;;;;4917925;29;20218;-88
2022/01/14 04:12:47;;;;;;;11.90;8.10;;;;;;;;;;4921147;29;20237;-88
2022/01/14 04:18:01;;;;;;;14.90;8.07;;;;;;;;;;4916789;29;20234;-90
2022/01/14 04:20:29;;;;;;;10.80;7.67;;;;;;;;;;4921579;29;20262;-89
2022/01/14 04:22:56;;;;;;;13.80;8.27;;;;;;;;;;4921648;29;20241;-88
2022/01/14 04:25:24;;;;;;;13.13;7.27;;;;;;;;;;4921406;29;20214;-89
2022/01/14 04:27:51;;;;;;;14.70;8.07;;;;;;;;;;4921227;29;20268;-88
2022/01/14 04:30:20;;;;;;;12.30;7.90;;;;;;;;;;4921633;29;20214;-90
2022/01/14 04:32:48;;;;;;;12.17;8.47;;;;;;;;;;4922050;29;20270;-89
2022/01/14 04:35:16;;;;;;;13.70;7.83;;;;;;;;;;4920109;29;20644;-88
2022/01/14 04:37:43;;;;;;;15.23;8.20;;;;;;;;;;4921563;29;20226;-88
2022/01/14 04:40:12;;;;;;;12.93;7.80;;;;;;;;;;4922119;29;20211;-88
2022/01/14 04:42:41;;;;;;;15.40;8.17;;;;;;;;;;4921435;29;20215;-88
2022/01/14 04:45:09;;;;;;;12.47;7.70;;;;;;;;;;4920911;29;20214;-88
2022/01/14 04:47:45;;;;;;;9.97;6.33;;;;;;;;;;4921210;29;20512;-89
2022/01/14 04:50:12;;;;;;;10.57;7.33;;;;;;;;;;4921963;29;20202;-90
2022/01/14 04:52:40;;;;;;;12.53;7.20;;;;;;;;;;4920761;29;20211;-88
2022/01/14 04:55:08;;;;;;;12.73;7.17;;;;;;;;;;4921373;29;20203;-88
2022/01/14 04:57:35;;;;;;;12.07;7.80;;;;;;;;;;4921672;29;20230;-89
2022/01/14 05:00:03;;;;;;;9.57;6.67;;;;;;;;;;4922961;29;20206;-90
2022/01/14 05:02:30;;;;;;;14.60;8.03;;;;;;;;;;4923009;29;20239;-91
2022/01/14 05:05:00;;;;;;;17.20;8.00;;;;;;;;;;4922454;29;20227;-91
2022/01/14 05:07:27;;;;;;;11.70;6.77;;;;;;;;;;4916989;29;20226;-89
2022/01/14 05:10:15;;;;;;;12.90;7.27;;;;;;;;;;4921152;29;20210;-90
2022/01/14 05:12:42;;;;;;;10.00;6.10;;;;;;;;;;4916884;29;20227;-91
2022/01/14 05:15:10;;;;;;;11.07;6.80;;;;;;;;;;4923017;29;20206;-90
2022/01/14 05:17:37;;;;;;;11.43;7.67;;;;;;;;;;4922919;29;20299;-90
2022/01/14 05:20:07;;;;;;;10.73;6.70;;;;;;;;;;4917652;29;20258;-90
2022/01/14 05:22:34;;;;;;;10.87;6.93;;;;;;;;;;4922131;29;20207;-90
2022/01/14 05:25:01;;;;;;;12.13;7.53;;;;;;;;;;4920884;29;20287;-91
2022/01/14 05:27:29;;;;;;;13.03;7.03;;;;;;;;;;4919377;29;20621;-90
2022/01/14 05:29:56;;;;;;;14.77;6.87;;;;;;;;;;4921598;29;20294;-90
2022/01/14 05:32:24;;;;;;;13.83;6.97;;;;;;;;;;4921487;29;20203;-89
2022/01/14 05:34:52;;;;;;;13.63;7.87;;;;;;;;;;4922529;29;20237;-92
2022/01/14 05:37:20;;;;;;;12.50;7.80;;;;;;;;;;4922919;29;20270;-89
2022/01/14 05:39:48;;;;;;;15.73;8.60;;;;;;;;;;4923213;29;20222;-90
2022/01/14 05:42:15;;;;;;;11.07;7.03;;;;;;;;;;4923280;29;20269;-90
2022/01/14 05:44:42;;;;;;;13.53;7.50;;;;;;;;;;4922310;29;20263;-91
2022/01/14 05:47:10;;;;;;;12.67;8.13;;;;;;;;;;4921203;29;20282;-91
2022/01/14 05:49:37;;;;;;;14.00;9.00;;;;;;;;;;4920924;29;20206;-91
2022/01/14 05:52:05;;;;;;;16.10;8.90;;;;;;;;;;4921137;29;20207;-91
2022/01/14 05:54:33;;;;;;;11.97;7.87;;;;;;;;;;4921269;29;20206;-90
2022/01/14 05:57:01;;;;;;;13.67;7.97;;;;;;;;;;4920906;29;20242;-90
2022/01/14 05:59:28;;;;;;;12.23;7.13;;;;;;;;;;4921496;29;20267;-90
2022/01/14 06:01:55;;;;;;;11.73;7.37;;;;;;;;;;4921588;29;20667;-90
2022/01/14 06:04:23;;;;;;;17.00;8.57;;;;;;;;;;4921731;29;20614;-91
2022/01/14 06:06:51;;;;;;;14.03;8.37;;;;;;;;;;4914619;29;20254;-90
2022/01/14 06:09:19;;;;;;;14.37;8.23;;;;;;;;;;4922189;29;20263;-91
2022/01/14 06:11:47;;;;;;;18.00;9.97;;;;;;;;;;4921843;29;20235;-90
2022/01/14 06:14:15;;;;;;;14.20;8.87;;;;;;;;;;4921460;29;20195;-90
2022/01/14 06:16:42;;;;;;;23.07;10.37;;;;;;;;;;4921123;29;20202;-90
2022/01/14 06:19:10;;;;;;;12.07;7.87;;;;;;;;;;4921617;29;20214;-89
2022/01/14 06:21:37;;;;;;;13.40;8.20;;;;;;;;;;4921152;29;20591;-90
2022/01/14 06:24:05;;;;;;;13.23;8.20;;;;;;;;;;4926651;29;20219;-91
2022/01/14 06:26:32;;;;;;;14.30;8.40;;;;;;;;;;4921580;29;20211;-90
2022/01/14 06:29:02;;;;;;;16.47;9.40;;;;;;;;;;4920680;29;20223;-90
2022/01/14 06:31:30;;;;;;;14.53;9.37;;;;;;;;;;4920112;29;20266;-90
2022/01/14 06:33:57;;;;;;;19.00;10.60;;;;;;;;;;4924745;29;20203;-90
2022/01/14 06:36:24;;;;;;;19.93;10.37;;;;;;;;;;4917134;29;20360;-90
2022/01/14 06:38:52;;;;;;;15.43;9.27;;;;;;;;;;4914304;29;20283;-90
2022/01/14 06:41:19;;;;;;;15.30;9.53;;;;;;;;;;4920623;29;20713;-89
2022/01/14 06:43:46;;;;;;;15.07;9.37;;;;;;;;;;4920682;29;20226;-90
2022/01/14 06:46:15;;;;;;;15.83;9.87;;;;;;;;;;4913326;29;20688;-89
2022/01/14 06:48:43;;;;;;;16.93;9.90;;;;;;;;;;4923534;29;20230;-90
2022/01/14 06:51:15;;;;;;;16.87;9.80;;;;;;;;;;4923788;29;20215;-90
2022/01/14 06:53:42;;;;;;;17.20;9.37;;;;;;;;;;4920908;29;20203;-89
2022/01/14 06:56:11;;;;;;;12.03;7.63;;;;;;;;;;4920482;29;20222;-90
2022/01/14 06:58:38;;;;;;;15.67;9.40;;;;;;;;;;4920389;29;20239;-91
2022/01/14 07:01:06;;;;;;;16.23;9.53;;;;;;;;;;4920770;29;20222;-91
2022/01/14 07:03:35;;;;;;;19.83;10.53;;;;;;;;;;4920985;29;20213;-91
2022/01/14 07:06:02;;;;;;;17.93;10.77;;;;;;;;;;4920323;29;20611;-91
2022/01/14 07:08:29;;;;;;;16.10;8.43;;;;;;;;;;4919258;29;20227;-91
2022/01/14 07:10:57;;;;;;;12.67;8.67;;;;;;;;;;4920030;29;20218;-92
2022/01/14 07:13:24;;;;;;;14.40;8.70;;;;;;;;;;4920300;29;20576;-91
2022/01/14 07:15:51;;;;;;;17.93;10.07;;;;;;;;;;4920212;29;20277;-91
2022/01/14 07:18:18;;;;;;;15.30;8.90;;;;;;;;;;4919244;29;20291;-90
2022/01/14 07:20:47;;;;;;;15.50;9.07;;;;;;;;;;4919273;29;20207;-91
2022/01/14 07:23:16;;;;;;;16.43;9.90;;;;;;;;;;4919715;29;20301;-90
2022/01/14 07:25:43;;;;;;;14.00;9.13;;;;;;;;;;4920285;29;20314;-91
2022/01/14 07:28:10;;;;;;;14.47;9.03;;;;;;;;;;4919796;29;20231;-91
2022/01/14 07:30:38;;;;;;;20.67;10.27;;;;;;;;;;4919935;29;20214;-90
2022/01/14 07:33:05;;;;;;;15.97;9.33;;;;;;;;;;4920003;29;20211;-91
2022/01/14 07:35:32;;;;;;;15.20;9.03;;;;;;;;;;4919444;29;20206;-90
2022/01/14 07:38:01;;;;;;;17.13;9.93;;;;;;;;;;4918765;29;20286;-90
2022/01/14 07:40:28;;;;;;;15.83;10.23;;;;;;;;;;4918646;29;20262;-91
2022/01/14 07:42:56;;;;;;;16.57;10.20;;;;;;;;;;4918628;29;20226;-90
2022/01/14 07:45:23;;;;;;;17.13;9.57;;;;;;;;;;4919456;29;20297;-91
2022/01/14 07:47:50;;;;;;;15.90;10.80;;;;;;;;;;4923212;29;20222;-90
2022/01/14 07:50:18;;;;;;;16.37;10.00;;;;;;;;;;4922910;29;20234;-90
2022/01/14 07:52:45;;;;;;;17.53;9.77;;;;;;;;;;4922480;29;20219;-91
2022/01/14 07:55:14;;;;;;;15.57;9.50;;;;;;;;;;4922253;29;20213;-91
2022/01/14 07:57:41;;;;;;;16.87;9.50;;;;;;;;;;4922512;29;20230;-90
2022/01/14 08:00:09;;;;;;;14.40;9.13;;;;;;;;;;4922182;29;20617;-91
2022/01/14 08:02:37;;;;;;;14.57;10.03;;;;;;;;;;4922290;29;20787;-91
2022/01/14 08:05:04;;;;;;;21.27;11.37;;;;;;;;;;4921602;29;20740;-91
2022/01/14 08:07:34;;;;;;;17.37;9.97;;;;;;;;;;4921757;29;20242;-91
2022/01/14 08:10:01;;;;;;;15.00;9.43;;;;;;;;;;4921800;29;20290;-91
2022/01/14 08:12:30;;;;;;;20.33;11.73;;;;;;;;;;4921700;29;20736;-91
2022/01/14 08:14:58;;;;;;;20.47;11.00;;;;;;;;;;4919148;29;20199;-90
2022/01/14 08:17:25;;;;;;;15.87;11.43;;;;;;;;;;4921421;29;20627;-91
2022/01/14 08:19:52;;;;;;;17.80;10.33;;;;;;;;;;4921221;29;20656;-91
2022/01/14 08:22:20;;;;;;;17.93;10.63;;;;;;;;;;4921046;29;20270;-91
2022/01/14 08:24:47;;;;;;;15.77;9.57;;;;;;;;;;4920945;29;20238;-92
2022/01/14 08:27:14;;;;;;;17.47;10.17;;;;;;;;;;4921066;29;20238;-91
2022/01/14 08:29:44;;;;;;;17.83;10.53;;;;;;;;;;4921066;29;20329;-91
2022/01/14 08:32:12;;;;;;;17.13;10.50;;;;;;;;;;4920899;29;20214;-90
2022/01/14 08:34:39;;;;;;;21.13;11.50;;;;;;;;;;4921193;29;20630;-90
2022/01/14 08:37:06;;;;;;;18.73;11.30;;;;;;;;;;4906278;29;20689;-90
2022/01/14 08:39:34;;;;;;;19.90;12.93;;;;;;;;;;4915852;29;20210;-91
2022/01/14 08:42:03;;;;;;;17.93;10.93;;;;;;;;;;4920840;29;20230;-92
2022/01/14 08:44:31;;;;;;;20.80;12.57;;;;;;;;;;4920371;29;20711;-90
2022/01/14 08:47:00;;;;;;;20.73;12.43;;;;;;;;;;4920005;29;20242;-90
2022/01/14 08:49:27;;;;;;;20.07;12.53;;;;;;;;;;4920340;29;20269;-90
2022/01/14 08:51:54;;;;;;;20.73;12.17;;;;;;;;;;4920243;29;20217;-90
2022/01/14 08:54:22;;;;;;;21.27;12.20;;;;;;;;;;4919895;29;20207;-90
2022/01/14 08:56:49;;;;;;;21.47;13.47;;;;;;;;;;4919492;29;20203;-90
2022/01/14 08:59:17;;;;;;;19.20;11.37;;;;;;;;;;4920200;29;20230;-91
2022/01/14 09:01:44;;;;;;;19.47;12.40;;;;;;;;;;4919564;29;20222;-90
2022/01/14 09:04:13;;;;;;;17.63;11.63;;;;;;;;;;4919563;29;20206;-90
2022/01/14 09:06:41;;;;;;;18.87;11.73;;;;;;;;;;4919530;29;20262;-90
2022/01/14 09:09:08;;;;;;;19.90;11.97;;;;;;;;;;4919867;29;20680;-90
2022/01/14 09:11:35;;;;;;;20.73;12.10;;;;;;;;;;4914488;29;20266;-90
2022/01/14 09:14:03;;;;;;;19.07;11.37;;;;;;;;;;4919667;29;20365;-91
2022/01/14 09:16:30;;;;;;;18.10;11.30;;;;;;;;;;4919800;29;20203;-90
2022/01/14 09:18:57;;;;;;;18.27;11.90;;;;;;;;;;4913539;29;20231;-90
2022/01/14 09:21:26;;;;;;;18.37;11.73;;;;;;;;;;4915501;29;20211;-90
2022/01/14 09:24:03;;;;;;;21.17;12.30;;;;;;;;;;4917752;29;20731;-90
2022/01/14 09:26:30;;;;;;;19.07;11.63;;;;;;;;;;4917631;29;20646;-90
2022/01/14 09:28:57;;;;;;;19.67;11.90;;;;;;;;;;4915938;29;20270;-91
2022/01/14 09:31:25;;;;;;;18.50;11.00;;;;;;;;;;4911337;29;20210;-90
2022/01/14 09:33:52;;;;;;;17.97;11.03;;;;;;;;;;4917975;29;20266;-90
2022/01/14 09:36:19;;;;;;;17.77;12.00;;;;;;;;;;4919875;29;20199;-90
2022/01/14 09:38:48;;;;;;;18.40;11.47;;;;;;;;;;4914894;29;20569;-89
2022/01/14 09:41:17;;;;;;;19.20;11.20;;;;;;;;;;4917696;29;20563;-91
2022/01/14 09:43:45;;;;;;;15.00;10.90;;;;;;;;;;4920489;29;20209;-89
2022/01/14 09:46:12;;;;;;;18.83;11.80;;;;;;;;;;4919068;29;20298;-92
2022/01/14 09:48:40;;;;;;;17.40;11.43;;;;;;;;;;4911218;29;20294;-90
2022/01/14 09:51:07;;;;;;;16.87;10.83;;;;;;;;;;4919262;29;20207;-90
2022/01/14 09:53:35;;;;;;;15.70;11.13;;;;;;;;;;4910411;29;20234;-90
2022/01/14 09:56:04;;;;;;;17.80;11.03;;;;;;;;;;4904842;29;20211;-90
2022/01/14 09:58:36;;;;;;;18.57;10.70;;;;;;;;;;4914576;29;20700;-90
2022/01/14 10:01:07;;;;;;;19.33;10.77;;;;;;;;;;4914089;29;20219;-90
2022/01/14 10:03:35;;;;;;;17.57;11.07;;;;;;;;;;4900639;29;20269;-92
2022/01/14 10:06:02;;;;;;;17.27;10.67;;;;;;;;;;4912056;29;20297;-89
2022/01/14 10:08:29;;;;;;;17.53;11.17;;;;;;;;;;4913306;29;20647;-90
2022/01/14 10:10:59;;;;;;;18.03;11.03;;;;;;;;;;4914574;29;20211;-91
2022/01/14 10:13:30;;;;;;;16.07;10.77;;;;;;;;;;4910956;29;20210;-90
2022/01/14 10:16:02;;;;;;;16.70;11.67;;;;;;;;;;4913286;29;20937;-90
2022/01/14 10:18:30;;;;;;;18.97;11.40;;;;;;;;;;4913773;29;20684;-90
2022/01/14 10:21:12;;;;;;;16.93;11.70;;;;;;;;;;4900997;29;20239;-91
2022/01/14 10:23:40;;;;;;;23.50;12.03;;;;;;;;;;4913741;29;20262;-92
2022/01/14 10:26:07;;;;;;;18.57;11.37;;;;;;;;;;4913874;29;20747;-91
2022/01/14 10:28:36;;;;;;;28.23;12.23;;;;;;;;;;4914366;29;20282;-90
2022/01/14 10:31:05;;;;;;;37.27;13.27;;;;;;;;;;4908138;29;20214;-90
2022/01/14 10:33:32;;;;;;;19.77;12.17;;;;;;;;;;4914407;29;20207;-89
2022/01/14 10:36:00;;;;;;;19.07;12.70;;;;;;;;;;4914090;29;20203;-90
2022/01/14 10:38:28;;;;;;;18.43;11.17;;;;;;;;;;4909058;29;20672;-89
2022/01/14 10:40:57;;;;;;;16.23;11.03;;;;;;;;;;4913474;29;20210;-91
2022/01/14 10:43:31;;;;;;;18.90;13.43;;;;;;;;;;4902096;29;20214;-90
2022/01/14 10:46:01;;;;;;;15.67;10.73;;;;;;;;;;4895821;29;20866;-90
2022/01/14 10:48:31;;;;;;;16.10;11.40;;;;;;;;;;4904106;29;20317;-90
2022/01/14 10:50:59;;;;;;;18.63;12.07;;;;;;;;;;4913613;29;20273;-90
2022/01/14 10:53:27;;;;;;;19.50;12.57;;;;;;;;;;4913969;29;20237;-89
2022/01/14 10:55:59;;;;;;;15.77;10.23;;;;;;;;;;4913783;29;20266;-89
2022/01/14 10:58:27;;;;;;;18.77;12.13;;;;;;;;;;4904589;29;20231;-90
2022/01/14 11:00:59;;;;;;;17.87;11.37;;;;;;;;;;4910661;29;20211;-92
2022/01/14 11:03:35;;;;;;;16.43;11.10;;;;;;;;;;4914201;29;20210;-89
2022/01/14 11:06:16;;;;;;;17.80;10.47;;;;;;;;;;4908568;29;20222;-90
2022/01/14 11:08:43;;;;;;;20.03;11.67;;;;;;;;;;4908981;29;20230;-91
2022/01/14 11:11:11;;;;;;;17.43;10.93;;;;;;;;;;4913205;29;20226;-90
2022/01/14 11:13:38;;;;;;;14.40;9.23;;;;;;;;;;4913600;29;20620;-89
2022/01/14 11:16:06;;;;;;;16.10;10.87;;;;;;;;;;4907292;29;20214;-91
2022/01/14 11:18:35;;;;;;;18.33;11.40;;;;;;;;;;4912778;29;20874;-90
2022/01/14 11:23:47;;;;;;;17.70;12.03;;;;;;;;;;4907701;29;20209;-89
2022/01/14 11:26:16;;;;;;;21.53;13.10;;;;;;;;;;4911714;29;20285;-89
2022/01/14 11:28:45;;;;;;;18.87;12.50;;;;;;;;;;4913560;29;20234;-91
2022/01/14 11:31:25;;;;;;;21.50;13.67;;;;;;;;;;4901002;29;20206;-89
2022/01/14 11:33:54;;;;;;;18.97;11.70;;;;;;;;;;4910404;29;20215;-89
2022/01/14 11:36:21;;;;;;;24.30;12.40;;;;;;;;;;4913084;29;20736;-89
2022/01/14 11:38:49;;;;;;;18.40;12.13;;;;;;;;;;4908222;29;20231;-89
2022/01/14 11:41:18;;;;;;;17.73;11.73;;;;;;;;;;4907884;29;20211;-89
2022/01/14 11:43:46;;;;;;;20.80;11.90;;;;;;;;;;4904021;29;20246;-89
2022/01/14 11:46:16;;;;;;;14.53;9.47;;;;;;;;;;4910213;29;20246;-89
2022/01/14 11:48:47;;;;;;;14.63;9.67;;;;;;;;;;4898664;29;20286;-89
2022/01/14 11:51:17;;;;;;;15.43;9.80;;;;;;;;;;4912888;29;20297;-89
2022/01/14 11:53:51;;;;;;;18.50;10.03;;;;;;;;;;4913494;29;20774;-89
2022/01/14 11:56:37;;;;;;;15.10;9.67;;;;;;;;;;4908147;29;20213;-89
2022/01/14 11:59:22;;;;;;;15.37;9.47;;;;;;;;;;4912795;29;20301;-89
2022/01/14 12:01:51;;;;;;;15.77;9.93;;;;;;;;;;4909082;29;20250;-91
2022/01/14 12:04:19;;;;;;;16.83;9.40;;;;;;;;;;4913988;29;20297;-90
2022/01/14 12:07:01;;;;;;;13.20;9.40;;;;;;;;;;4912987;29;20365;-88
2022/01/14 12:09:33;;;;;;;19.00;9.37;;;;;;;;;;4913357;29;20266;-89
2022/01/14 12:12:18;;;;;;;14.30;10.30;;;;;;;;;;4913454;29;20559;-88
2022/01/14 12:14:55;;;;;;;13.83;8.60;;;;;;;;;;4907066;29;20243;-88
2022/01/14 12:17:32;;;;;;;15.87;9.43;;;;;;;;;;4911998;29;20226;-89
2022/01/14 12:20:07;;;;;;;12.77;9.17;;;;;;;;;;4912918;29;20273;-88
2022/01/14 12:22:36;;;;;;;12.47;8.80;;;;;;;;;;4911092;29;20210;-88
2022/01/14 12:25:04;;;;;;;13.07;8.50;;;;;;;;;;4898499;29;20211;-88
2022/01/14 12:27:47;;;;;;;10.77;8.03;;;;;;;;;;4911997;29;20655;-89
2022/01/14 12:30:24;;;;;;;11.10;7.83;;;;;;;;;;4909937;29;20661;-88
2022/01/14 12:32:55;;;;;;;14.13;8.63;;;;;;;;;;4899502;29;20211;-88
2022/01/14 12:35:26;;;;;;;13.33;8.53;;;;;;;;;;4916117;29;20250;-89
2022/01/14 12:37:56;;;;;;;11.37;8.33;;;;;;;;;;4912937;29;20362;-88
2022/01/14 12:40:24;;;;;;;12.40;8.00;;;;;;;;;;4910435;29;20203;-88
2022/01/14 12:42:54;;;;;;;10.73;7.43;;;;;;;;;;4915615;29;20207;-88
2022/01/14 12:45:27;;;;;;;9.77;7.10;;;;;;;;;;4916451;29;20210;-90
2022/01/14 12:48:02;;;;;;;11.97;7.53;;;;;;;;;;4905953;29;20230;-89
2022/01/14 12:50:30;;;;;;;10.90;6.67;;;;;;;;;;4915785;29;20211;-89
2022/01/14 12:52:59;;;;;;;11.90;7.83;;;;;;;;;;4915623;29;20210;-88
2022/01/14 12:55:26;;;;;;;15.53;7.90;;;;;;;;;;4909894;29;20263;-88
2022/01/14 12:57:57;;;;;;;10.23;7.10;;;;;;;;;;4912257;29;20610;-89
2022/01/14 13:00:25;;;;;;;11.33;7.73;;;;;;;;;;4915938;29;20301;-88
2022/01/14 13:02:52;;;;;;;13.87;9.70;;;;;;;;;;4915774;29;20217;-88
2022/01/14 13:05:21;;;;;;;19.30;13.13;;;;;;;;;;4906991;29;20214;-89
2022/01/14 13:07:49;;;;;;;16.23;10.80;;;;;;;;;;4915104;29;20227;-88
2022/01/14 13:10:19;;;;;;;16.97;10.30;;;;;;;;;;4915092;29;20210;-88
2022/01/14 13:12:47;;;;;;;14.30;9.50;;;;;;;;;;4913249;29;20203;-87
2022/01/14 13:15:17;;;;;;;13.53;9.13;;;;;;;;;;4907275;29;20214;-89
2022/01/14 13:17:53;;;;;;;13.40;9.37;;;;;;;;;;4915099;29;20232;-88
2022/01/14 13:20:21;;;;;;;9.60;6.87;;;;;;;;;;4915949;29;20885;-88
2022/01/14 13:23:07;;;;;;;9.93;6.80;;;;;;;;;;4907209;29;20238;-88
2022/01/14 13:25:36;;;;;;;11.00;6.83;;;;;;;;;;4915266;29;20815;-88
2022/01/14 13:28:05;;;;;;;13.83;6.50;;;;;;;;;;4914385;29;20898;-88
2022/01/14 13:30:35;;;;;;;7.73;5.17;;;;;;;;;;4908806;29;20625;-89
2022/01/14 13:33:04;;;;;;;7.63;5.80;;;;;;;;;;4910023;29;20682;-89
2022/01/14 13:35:32;;;;;;;9.73;5.57;;;;;;;;;;4915097;29;20207;-88
2022/01/14 13:38:01;;;;;;;12.07;6.03;;;;;;;;;;4906576;29;20283;-88
2022/01/14 13:40:30;;;;;;;9.70;5.47;;;;;;;;;;4907332;29;20209;-88
2022/01/14 13:43:06;;;;;;;5.63;4.47;;;;;;;;;;4914863;29;20217;-88
2022/01/14 13:45:34;;;;;;;9.00;4.80;;;;;;;;;;4905836;29;20211;-88
2022/01/14 13:48:16;;;;;;;7.57;4.70;;;;;;;;;;4904165;29;20677;-88
2022/01/14 13:50:44;;;;;;;8.53;4.90;;;;;;;;;;4914483;29;20847;-88
2022/01/14 13:53:12;;;;;;;7.73;5.23;;;;;;;;;;4914510;29;20289;-88
2022/01/14 13:55:40;;;;;;;6.07;4.60;;;;;;;;;;4910324;29;20210;-89
2022/01/14 13:58:12;;;;;;;6.50;4.63;;;;;;;;;;4914228;29;20286;-88
2022/01/14 14:00:40;;;;;;;6.40;4.47;;;;;;;;;;4910039;29;20210;-88
2022/01/14 14:03:20;;;;;;;5.97;4.20;;;;;;;;;;4903996;29;20964;-88
2022/01/14 14:05:51;;;;;;;7.33;5.60;;;;;;;;;;4906321;29;20214;-88
2022/01/14 14:08:36;;;;;;;11.17;7.20;;;;;;;;;;4907306;29;20226;-90
2022/01/14 14:16:45;;;;;;;7.17;4.77;;;;;;;;;;4913649;29;20226;-88
2022/01/14 14:19:12;;;;;;;6.50;5.03;;;;;;;;;;4904376;29;20241;-88
2022/01/14 14:21:43;;;;;;;12.23;6.83;;;;;;;;;;4902304;29;20251;-89
2022/01/14 14:24:13;;;;;;;9.00;5.40;;;;;;;;;;4912995;29;20207;-88
2022/01/14 14:26:42;;;;;;;8.87;5.77;;;;;;;;;;4914040;29;20278;-89
2022/01/14 14:29:24;;;;;;;9.33;5.70;;;;;;;;;;4914789;29;20218;-88
2022/01/14 14:31:52;;;;;;;11.37;6.27;;;;;;;;;;4906477;29;20278;-90
2022/01/14 14:34:21;;;;;;;7.93;5.43;;;;;;;;;;4911320;29;20270;-88
2022/01/14 14:36:48;;;;;;;7.23;4.93;;;;;;;;;;4913605;29;20206;-88
2022/01/14 14:39:16;;;;;;;10.87;6.00;;;;;;;;;;4905221;29;20270;-90
2022/01/14 14:41:43;;;;;;;6.90;5.33;;;;;;;;;;4897438;29;20266;-88
2022/01/14 14:44:10;;;;;;;7.07;4.77;;;;;;;;;;4906674;29;20673;-88
2022/01/14 14:46:44;;;;;;;7.93;5.40;;;;;;;;;;4913076;29;20282;-90
2022/01/14 14:49:11;;;;;;;5.73;4.10;;;;;;;;;;4914117;29;20747;-89
2022/01/14 14:51:39;;;;;;;6.60;4.17;;;;;;;;;;4911147;29;20836;-88
2022/01/14 14:54:07;;;;;;;6.27;4.10;;;;;;;;;;4906458;29;20431;-88
2022/01/14 14:56:35;;;;;;;6.83;4.23;;;;;;;;;;4913176;29;20223;-90
2022/01/14 14:59:02;;;;;;;8.10;4.13;;;;;;;;;;4908957;29;20231;-88
2022/01/14 15:01:29;;;;;;;5.30;4.07;;;;;;;;;;4910787;29;20233;-88
2022/01/14 15:03:58;;;;;;;7.73;4.50;;;;;;;;;;4913037;29;20214;-90